Time;durP1;ratioP1;P1;durP2;ratioP2;P2;SDS_P1;SDS_P2;PMS_P1;PMS_P2;Temp;Humidity;BMP_temperature;BMP_pressure;BME280_temperature;BME280_humidity;BME280_pressure;Samples;Min_cycle;Max_cycle;Signal;HPM_P1;HPM_P2
2022/11/06 00:01:22;;;;;;;9.77;6.97;;;9.60;99.90;;;;;;5088129;28;20447;-62
2022/11/06 00:03:51;;;;;;;11.32;8.10;;;9.60;99.90;;;;;;5086499;28;20053;-61
2022/11/06 00:09:06;;;;;;;12.52;7.15;;;9.50;99.90;;;;;;5087131;28;20040;-62
2022/11/06 00:11:32;;;;;;;11.90;7.38;;;9.50;99.90;;;;;;5087485;28;20075;-62
2022/11/06 00:14:00;;;;;;;12.40;7.55;;;9.50;99.90;;;;;;5066750;28;20071;-62
2022/11/06 00:16:25;;;;;;;9.30;7.80;;;9.50;99.90;;;;;;5069948;28;20048;-63
2022/11/06 00:18:51;;;;;;;9.60;7.30;;;9.50;99.90;;;;;;5083869;28;20040;-63
2022/11/06 00:21:22;;;;;;;14.02;7.93;;;9.50;99.90;;;;;;5083687;28;20073;-63
2022/11/06 00:23:48;;;;;;;9.40;7.28;;;9.50;99.90;;;;;;5083514;28;20062;-62
2022/11/06 00:26:18;;;;;;;11.48;8.13;;;9.50;99.90;;;;;;5085163;28;20464;-62
2022/11/06 00:28:44;;;;;;;15.45;7.78;;;9.50;99.90;;;;;;5081621;28;20044;-62
2022/11/06 00:31:13;;;;;;;10.52;7.18;;;9.40;99.90;;;;;;5068166;28;20048;-62
2022/11/06 00:33:40;;;;;;;12.00;6.80;;;9.40;99.90;;;;;;5084926;28;20047;-62
2022/11/06 00:36:09;;;;;;;9.93;7.30;;;9.50;99.90;;;;;;5086062;28;20492;-63
2022/11/06 00:38:34;;;;;;;8.98;6.78;;;9.40;99.90;;;;;;5085564;28;20040;-62
2022/11/06 00:41:09;;;;;;;11.23;7.57;;;9.50;99.90;;;;;;5086726;28;20114;-62
2022/11/06 00:43:35;;;;;;;8.48;6.88;;;9.50;99.90;;;;;;5086071;28;20493;-62
2022/11/06 00:46:12;;;;;;;10.65;7.10;;;9.50;99.90;;;;;;5086024;28;20569;-62
2022/11/06 00:48:38;;;;;;;10.52;6.82;;;9.50;99.90;;;;;;5087388;28;20048;-63
2022/11/06 00:51:06;;;;;;;8.70;6.47;;;9.50;99.90;;;;;;5080523;28;20032;-62
2022/11/06 00:53:32;;;;;;;9.32;7.10;;;9.50;99.90;;;;;;5086664;28;20055;-62
2022/11/06 00:56:13;;;;;;;12.40;7.20;;;9.50;99.90;;;;;;5084730;28;20040;-62
2022/11/06 00:58:39;;;;;;;11.82;6.63;;;9.50;99.90;;;;;;5086553;28;20043;-61
2022/11/06 01:01:17;;;;;;;11.88;6.82;;;9.50;99.90;;;;;;5083763;28;20120;-61
2022/11/06 01:03:44;;;;;;;9.85;6.50;;;9.50;99.90;;;;;;5085158;28;20128;-62
2022/11/06 01:06:16;;;;;;;10.27;6.43;;;9.50;99.90;;;;;;5084781;28;20040;-62
2022/11/06 01:08:42;;;;;;;10.25;7.20;;;9.50;99.90;;;;;;5069204;28;20102;-62
2022/11/06 01:11:15;;;;;;;11.90;6.20;;;9.50;99.90;;;;;;5087425;28;20039;-61
2022/11/06 01:13:42;;;;;;;13.23;7.07;;;9.50;99.90;;;;;;5084552;28;20438;-62
2022/11/06 01:16:10;;;;;;;11.68;5.90;;;9.40;99.90;;;;;;5083736;28;20056;-62
2022/11/06 01:18:36;;;;;;;9.85;6.95;;;9.40;99.90;;;;;;5068658;28;20039;-62
2022/11/06 01:21:05;;;;;;;10.85;6.70;;;9.30;99.90;;;;;;5084059;28;20036;-62
2022/11/06 01:23:30;;;;;;;9.55;6.53;;;9.30;99.90;;;;;;5084915;28;20481;-61
2022/11/06 01:26:01;;;;;;;12.07;6.70;;;9.30;99.90;;;;;;5083276;28;20120;-62
2022/11/06 01:28:27;;;;;;;10.00;6.43;;;9.30;99.90;;;;;;5086034;28;20043;-62
2022/11/06 01:30:53;;;;;;;10.45;7.43;;;9.30;99.90;;;;;;5071478;28;20127;-62
2022/11/06 01:33:19;;;;;;;10.68;6.75;;;9.40;99.90;;;;;;5086990;28;20044;-61
2022/11/06 01:35:46;;;;;;;10.90;6.28;;;9.30;99.90;;;;;;5085194;28;20044;-63
2022/11/06 01:38:13;;;;;;;8.82;6.38;;;9.30;99.90;;;;;;5084435;28;20086;-63
2022/11/06 01:40:40;;;;;;;9.30;6.82;;;9.30;99.90;;;;;;5082450;28;20476;-63
2022/11/06 01:43:12;;;;;;;12.75;6.15;;;9.30;99.90;;;;;;5083419;28;20402;-63
2022/11/06 01:45:39;;;;;;;9.95;6.35;;;9.30;99.90;;;;;;5084165;28;20510;-62
2022/11/06 01:48:05;;;;;;;11.63;6.60;;;9.30;99.90;;;;;;5084551;28;20128;-62
2022/11/06 01:50:31;;;;;;;10.52;6.28;;;9.30;99.90;;;;;;5085139;28;20392;-63
2022/11/06 01:52:59;;;;;;;10.63;6.38;;;9.30;99.90;;;;;;5087210;28;20058;-62
2022/11/06 01:55:31;;;;;;;11.02;6.18;;;9.30;99.90;;;;;;5085238;28;20039;-61
2022/11/06 01:58:00;;;;;;;13.23;6.07;;;9.30;99.90;;;;;;5086426;28;20800;-61
2022/11/06 02:00:26;;;;;;;10.02;6.00;;;9.30;99.90;;;;;;5083433;28;20040;-61
2022/11/06 02:02:52;;;;;;;13.32;5.95;;;9.30;99.90;;;;;;5086581;28;20401;-61
2022/11/06 02:05:18;;;;;;;10.60;5.90;;;9.30;99.90;;;;;;5085493;28;20048;-61
2022/11/06 02:07:44;;;;;;;8.93;6.38;;;9.30;99.90;;;;;;5081513;28;20546;-62
2022/11/06 02:10:10;;;;;;;9.90;6.35;;;9.30;99.90;;;;;;5087456;28;20036;-62
2022/11/06 02:12:50;;;;;;;11.55;6.05;;;9.30;99.90;;;;;;5088312;28;20040;-63
2022/11/06 02:15:34;;;;;;;10.40;5.63;;;9.30;99.90;;;;;;5086998;28;20052;-63
2022/11/06 02:18:33;;;;;;;9.93;5.75;;;9.30;99.90;;;;;;5083498;28;20055;-63
2022/11/06 02:21:52;;;;;;;12.45;5.53;;;9.30;99.90;;;;;;5084491;28;20093;-63
2022/11/06 02:24:42;;;;;;;11.82;6.18;;;9.30;99.90;;;;;;5008001;28;20149;-63
2022/11/06 02:27:18;;;;;;;11.05;5.60;;;9.30;99.90;;;;;;5005945;28;20042;-63
2022/11/06 02:30:05;;;;;;;10.00;5.40;;;9.30;99.90;;;;;;5005781;28;20049;-63
2022/11/06 02:32:31;;;;;;;10.43;6.03;;;9.30;99.90;;;;;;5006703;28;20093;-62
2022/11/06 02:34:59;;;;;;;11.38;5.85;;;9.20;99.90;;;;;;5007532;28;20041;-62
2022/11/06 02:37:31;;;;;;;12.70;6.30;;;9.20;99.90;;;;;;5006647;28;20120;-62
2022/11/06 02:40:00;;;;;;;9.93;5.93;;;9.20;99.90;;;;;;5017203;28;20048;-61
2022/11/06 02:42:27;;;;;;;7.70;4.93;;;9.20;99.90;;;;;;5006369;28;20038;-62
2022/11/06 02:44:55;;;;;;;10.50;5.63;;;9.20;99.90;;;;;;5007106;28;20112;-62
2022/11/06 02:47:23;;;;;;;10.60;4.72;;;9.20;99.90;;;;;;5002307;28;20609;-62
2022/11/06 02:50:14;;;;;;;10.82;5.38;;;9.20;99.90;;;;;;5004495;28;20073;-62
2022/11/06 02:52:53;;;;;;;11.82;5.10;;;9.10;99.90;;;;;;4999977;28;20073;-63
2022/11/06 02:55:30;;;;;;;8.25;4.75;;;9.10;99.90;;;;;;5012644;28;20064;-63
2022/11/06 02:58:02;;;;;;;11.30;4.63;;;9.10;99.90;;;;;;5045436;28;20508;-62
2022/11/06 03:00:28;;;;;;;9.10;5.20;;;9.10;99.90;;;;;;5082710;28;20054;-61
2022/11/06 03:03:01;;;;;;;8.10;4.55;;;9.10;99.90;;;;;;5084754;28;20093;-62
2022/11/06 03:05:37;;;;;;;10.40;5.47;;;9.10;99.90;;;;;;5062870;28;20310;-63
2022/11/06 03:08:14;;;;;;;7.85;5.03;;;9.20;99.90;;;;;;5082784;28;20062;-63
2022/11/06 03:10:54;;;;;;;8.00;4.55;;;9.20;99.90;;;;;;5085466;28;20044;-63
2022/11/06 03:13:26;;;;;;;9.32;4.70;;;9.20;99.90;;;;;;5084174;28;20059;-63
2022/11/06 03:15:57;;;;;;;11.55;4.85;;;9.20;99.90;;;;;;5082341;28;20059;-61
2022/11/06 03:18:53;;;;;;;11.48;4.82;;;9.20;99.90;;;;;;5084884;28;20044;-63
2022/11/06 03:21:29;;;;;;;10.45;5.07;;;9.20;99.90;;;;;;5048492;28;20063;-63
2022/11/06 03:24:02;;;;;;;7.40;4.80;;;9.20;99.90;;;;;;5066624;28;20040;-62
2022/11/06 03:26:37;;;;;;;9.73;4.50;;;9.20;99.90;;;;;;5081919;28;20408;-62
2022/11/06 03:29:15;;;;;;;8.18;4.53;;;9.30;99.90;;;;;;5082195;28;20453;-62
2022/11/06 03:31:55;;;;;;;9.30;4.70;;;9.20;99.90;;;;;;5078681;28;20032;-62
2022/11/06 03:34:57;;;;;;;10.13;4.35;;;9.30;99.90;;;;;;5079708;28;20558;-61
2022/11/06 03:37:35;;;;;;;8.35;4.32;;;9.30;99.90;;;;;;5065380;28;20056;-62
2022/11/06 03:40:07;;;;;;;8.98;4.05;;;9.30;99.90;;;;;;5082439;28;20519;-61
2022/11/06 03:42:35;;;;;;;11.15;4.82;;;9.30;99.90;;;;;;5083356;28;20534;-62
2022/11/06 03:45:06;;;;;;;6.88;3.83;;;9.30;99.90;;;;;;5084590;28;20436;-60
2022/11/06 03:47:58;;;;;;;9.02;4.28;;;9.30;99.90;;;;;;5081681;28;20036;-61
2022/11/06 03:50:30;;;;;;;8.40;4.03;;;9.30;99.90;;;;;;5080824;28;20056;-62
2022/11/06 03:53:04;;;;;;;7.47;3.53;;;9.30;99.90;;;;;;5061675;28;20051;-61
2022/11/06 03:55:39;;;;;;;8.63;3.92;;;9.30;99.90;;;;;;5083688;28;20556;-62
2022/11/06 03:58:16;;;;;;;8.63;3.55;;;9.30;99.90;;;;;;5065711;28;20131;-61
2022/11/06 04:00:43;;;;;;;9.23;3.83;;;9.30;99.90;;;;;;5085744;28;20043;-61
2022/11/06 04:03:21;;;;;;;7.50;3.80;;;9.30;99.90;;;;;;5062811;28;20447;-62
2022/11/06 04:06:16;;;;;;;5.95;3.95;;;9.30;99.90;;;;;;5087546;28;20063;-61
2022/11/06 04:14:19;;;;;;;14.32;3.97;;;9.30;99.90;;;;;;5085212;28;20043;-62
2022/11/06 04:16:55;;;;;;;7.90;3.30;;;9.30;99.90;;;;;;5082084;28;20052;-62
2022/11/06 04:19:22;;;;;;;6.68;3.40;;;9.30;99.90;;;;;;5086941;28;20085;-61
2022/11/06 04:22:00;;;;;;;6.65;3.20;;;9.30;99.90;;;;;;5088980;28;20040;-62
2022/11/06 04:27:28;;;;;;;10.88;3.75;;;9.40;99.90;;;;;;5087450;28;20044;-62
2022/11/06 04:30:16;;;;;;;7.25;3.30;;;9.40;99.90;;;;;;5084349;28;20044;-63
2022/11/06 04:32:45;;;;;;;;;;;9.40;99.90;;;;;;5084851;28;20044;-62
2022/11/06 04:35:13;;;;;;;11.18;3.45;;;9.40;99.90;;;;;;5089109;28;20369;-60
2022/11/06 04:37:43;;;;;;;8.05;3.17;;;9.40;99.90;;;;;;5084377;28;20483;-62
2022/11/06 04:40:26;;;;;;;13.18;3.47;;;9.40;99.90;;;;;;5089401;28;20040;-62
2022/11/06 04:43:02;;;;;;;10.40;3.80;;;9.40;99.90;;;;;;5085680;28;20412;-61
2022/11/06 04:45:41;;;;;;;5.00;2.83;;;9.40;99.90;;;;;;5085719;28;20044;-60
2022/11/06 04:48:07;;;;;;;9.57;3.13;;;9.40;99.90;;;;;;5067599;28;20060;-62
2022/11/06 04:50:39;;;;;;;8.95;2.95;;;9.40;99.90;;;;;;5086672;28;20068;-62
2022/11/06 04:53:08;;;;;;;13.38;3.97;;;9.40;99.90;;;;;;5087641;28;20032;-62
2022/11/06 04:55:38;;;;;;;9.68;3.88;;;9.40;99.90;;;;;;5086937;28;20127;-62
2022/11/06 04:58:04;;;;;;;7.53;3.40;;;9.40;99.90;;;;;;5085260;28;20040;-62
2022/11/06 05:00:30;;;;;;;8.43;3.30;;;9.40;99.90;;;;;;5087804;28;20051;-61
2022/11/06 05:02:55;;;;;;;7.38;3.10;;;9.40;99.90;;;;;;5088217;28;20067;-62
2022/11/06 05:05:21;;;;;;;7.60;3.63;;;9.30;99.90;;;;;;5087538;28;20041;-62
2022/11/06 05:07:46;;;;;;;7.03;2.90;;;9.30;99.90;;;;;;5082197;28;20071;-62
2022/11/06 05:10:12;;;;;;;8.50;3.22;;;9.30;99.90;;;;;;5086312;28;20089;-62
2022/11/06 05:12:37;;;;;;;10.48;3.22;;;9.30;99.90;;;;;;5085544;28;20036;-62
2022/11/06 05:15:03;;;;;;;9.90;3.42;;;9.30;99.90;;;;;;5070000;28;20044;-62
2022/11/06 05:17:29;;;;;;;5.60;2.80;;;9.30;99.90;;;;;;5084779;28;20104;-61
2022/11/06 05:19:55;;;;;;;11.13;3.50;;;9.30;99.90;;;;;;5088206;28;20090;-61
2022/11/06 05:25:05;;;;;;;10.02;2.80;;;9.30;99.90;;;;;;5084714;28;20273;-62
2022/11/06 05:27:30;;;;;;;14.43;3.30;;;9.30;99.90;;;;;;5085708;28;20101;-62
2022/11/06 05:29:56;;;;;;;9.38;3.05;;;9.40;99.90;;;;;;5082357;28;20043;-60
2022/11/06 05:32:21;;;;;;;9.48;2.85;;;9.30;99.90;;;;;;5085856;28;20445;-62
2022/11/06 05:34:47;;;;;;;5.53;2.35;;;9.30;99.90;;;;;;5053817;28;20043;-62
2022/11/06 05:37:13;;;;;;;9.07;2.90;;;9.40;99.90;;;;;;5084051;28;20130;-61
2022/11/06 05:39:38;;;;;;;7.00;2.80;;;9.30;99.90;;;;;;5066198;28;20854;-62
2022/11/06 05:42:04;;;;;;;5.28;2.60;;;9.40;99.90;;;;;;5062077;28;20409;-62
2022/11/06 05:44:29;;;;;;;6.43;2.70;;;9.40;99.90;;;;;;5052177;28;20134;-62
2022/11/06 05:46:55;;;;;;;8.13;2.63;;;9.30;99.90;;;;;;5087448;28;20126;-62
2022/11/06 05:49:21;;;;;;;7.43;2.90;;;9.30;99.90;;;;;;5090220;28;20118;-62
2022/11/06 05:51:49;;;;;;;7.32;2.80;;;9.30;99.90;;;;;;5085342;28;20130;-62
2022/11/06 05:54:15;;;;;;;8.50;2.70;;;9.30;99.90;;;;;;5067917;28;20127;-62
2022/11/06 05:56:40;;;;;;;6.50;2.83;;;9.30;99.90;;;;;;5084025;28;20036;-61
2022/11/06 05:59:06;;;;;;;8.30;2.80;;;9.40;99.90;;;;;;5087470;28;20040;-62
2022/11/06 06:01:32;;;;;;;11.20;3.10;;;9.40;99.90;;;;;;5087637;28;20510;-59
2022/11/06 06:03:57;;;;;;;7.65;2.38;;;9.40;99.90;;;;;;5084347;28;20051;-60
2022/11/06 06:06:23;;;;;;;6.40;2.83;;;9.40;99.90;;;;;;5085191;28;20054;-59
2022/11/06 06:08:48;;;;;;;5.65;2.58;;;9.40;99.90;;;;;;5087002;28;20043;-61
2022/11/06 06:11:14;;;;;;;9.77;3.30;;;9.40;99.90;;;;;;5087889;28;20107;-61
2022/11/06 06:13:40;;;;;;;9.70;2.67;;;9.50;99.90;;;;;;5083787;28;20036;-59
2022/11/06 06:16:05;;;;;;;8.60;3.35;;;9.50;99.90;;;;;;5083073;28;20056;-62
2022/11/06 06:18:31;;;;;;;9.35;2.65;;;9.40;99.90;;;;;;5068074;28;20422;-61
2022/11/06 06:21:00;;;;;;;6.43;2.70;;;9.50;99.90;;;;;;5087247;28;20106;-61
2022/11/06 06:23:26;;;;;;;6.80;2.78;;;9.50;99.90;;;;;;5083695;28;20043;-59
2022/11/06 06:25:51;;;;;;;6.97;2.60;;;9.50;99.90;;;;;;5083339;28;20040;-62
2022/11/06 06:28:17;;;;;;;6.13;2.67;;;9.50;99.90;;;;;;5083459;28;20718;-61
2022/11/06 06:30:42;;;;;;;6.65;2.42;;;9.50;99.90;;;;;;5083744;28;20139;-61
2022/11/06 06:33:08;;;;;;;6.55;2.30;;;9.50;99.90;;;;;;5065048;28;20044;-61
2022/11/06 06:35:34;;;;;;;11.18;3.25;;;9.50;99.90;;;;;;5065595;28;20032;-59
2022/11/06 06:38:00;;;;;;;4.38;2.13;;;9.60;99.90;;;;;;5084087;28;20213;-62
2022/11/06 06:40:25;;;;;;;5.20;2.60;;;9.50;99.90;;;;;;5084843;28;20044;-62
2022/11/06 06:42:55;;;;;;;7.90;2.20;;;9.60;99.90;;;;;;5086063;28;20068;-61
2022/11/06 06:45:20;;;;;;;8.68;2.90;;;9.60;99.90;;;;;;5067892;28;20118;-62
2022/11/06 06:47:46;;;;;;;7.10;2.60;;;9.50;99.90;;;;;;5082927;28;20150;-62
2022/11/06 06:50:11;;;;;;;7.28;2.60;;;9.60;99.90;;;;;;5084083;28;20044;-62
2022/11/06 06:52:37;;;;;;;9.27;2.50;;;9.60;99.90;;;;;;5050527;28;20452;-61
2022/11/06 06:55:04;;;;;;;12.77;2.65;;;9.60;99.90;;;;;;5082755;28;20059;-59
2022/11/06 06:57:29;;;;;;;8.40;2.60;;;9.60;99.90;;;;;;5085297;28;20518;-61
2022/11/06 06:59:55;;;;;;;5.82;2.00;;;9.70;99.90;;;;;;5063215;28;20040;-61
2022/11/06 07:02:20;;;;;;;6.22;2.67;;;9.70;99.90;;;;;;5085767;28;20123;-60
2022/11/06 07:04:46;;;;;;;10.60;3.00;;;9.70;99.90;;;;;;5083151;28;20388;-61
2022/11/06 07:07:12;;;;;;;7.88;2.55;;;9.70;99.90;;;;;;5084100;28;20119;-61
2022/11/06 07:09:37;;;;;;;7.10;2.38;;;9.90;99.90;;;;;;5085370;28;20385;-59
2022/11/06 07:12:03;;;;;;;9.98;2.63;;;9.80;99.90;;;;;;5084796;28;20040;-60
2022/11/06 07:14:29;;;;;;;4.90;2.17;;;9.80;99.90;;;;;;5083598;28;20043;-62
2022/11/06 07:16:55;;;;;;;9.52;2.58;;;9.80;99.90;;;;;;5083686;28;20523;-60
2022/11/06 07:19:20;;;;;;;7.50;2.00;;;9.80;99.90;;;;;;5084413;28;20063;-60
2022/11/06 07:21:49;;;;;;;9.85;2.80;;;9.80;99.90;;;;;;5086130;28;20087;-58
2022/11/06 07:24:16;;;;;;;6.75;2.35;;;9.90;99.90;;;;;;5065155;28;20063;-58
2022/11/06 07:26:42;;;;;;;10.47;2.50;;;9.90;99.90;;;;;;5062693;28;20041;-60
2022/11/06 07:29:08;;;;;;;8.68;2.35;;;9.90;99.90;;;;;;5083222;28;20339;-61
2022/11/06 07:31:33;;;;;;;9.65;2.50;;;9.90;99.90;;;;;;5085565;28;20047;-63
2022/11/06 07:33:59;;;;;;;7.40;2.38;;;9.80;99.90;;;;;;5082912;28;20056;-62
2022/11/06 07:36:26;;;;;;;5.07;2.22;;;;;;;;;;5082666;28;20094;-64
2022/11/06 07:38:51;;;;;;;6.32;2.58;;;10.00;99.90;;;;;;5083811;28;20045;-62
2022/11/06 07:41:17;;;;;;;5.95;2.53;;;10.00;99.90;;;;;;5068989;28;20040;-62
2022/11/06 07:43:43;;;;;;;9.10;2.20;;;10.10;99.90;;;;;;5086694;28;20048;-62
2022/11/06 07:46:11;;;;;;;5.40;2.22;;;10.10;99.90;;;;;;5085633;28;20044;-62
2022/11/06 07:48:36;;;;;;;;;;;10.20;99.90;;;;;;5086853;28;20048;-62
2022/11/06 07:51:04;;;;;;;7.85;2.55;;;10.20;99.90;;;;;;5066031;28;19920;-62
2022/11/06 07:53:30;;;;;;;;;;;10.20;99.90;;;;;;5087250;28;20063;-62
2022/11/06 07:55:56;;;;;;;8.40;2.50;;;10.20;99.90;;;;;;5088574;28;19962;-62
2022/11/06 07:58:22;;;;;;;6.20;2.53;;;10.20;99.90;;;;;;5086919;28;20067;-62
2022/11/06 08:00:53;;;;;;;8.52;2.40;;;10.20;99.90;;;;;;5082832;28;20036;-62
2022/11/06 08:03:19;;;;;;;8.57;2.58;;;10.20;99.90;;;;;;5088578;28;20044;-61
2022/11/06 08:05:45;;;;;;;6.78;1.95;;;10.30;99.90;;;;;;5083161;28;20504;-61
2022/11/06 08:08:11;;;;;;;9.25;2.40;;;10.30;99.90;;;;;;5087753;28;20044;-61
2022/11/06 08:10:42;;;;;;;6.13;2.20;;;10.30;99.90;;;;;;5085836;28;20036;-62
2022/11/06 08:13:12;;;;;;;5.38;2.15;;;10.40;99.90;;;;;;5069672;28;20048;-61
2022/11/06 08:15:39;;;;;;;10.10;2.70;;;10.40;99.90;;;;;;5052994;28;20044;-61
2022/11/06 08:18:06;;;;;;;7.45;2.08;;;10.40;99.90;;;;;;5070926;28;20080;-60
2022/11/06 08:20:33;;;;;;;6.05;2.20;;;10.40;99.90;;;;;;5066357;28;20028;-60
2022/11/06 08:23:00;;;;;;;4.78;2.00;;;10.50;99.90;;;;;;5089891;28;20044;-62
2022/11/06 08:25:26;;;;;;;6.03;2.63;;;10.50;99.90;;;;;;5063821;28;20051;-60
2022/11/06 08:27:57;;;;;;;5.97;2.10;;;10.60;99.90;;;;;;5084614;28;20032;-61
2022/11/06 08:30:23;;;;;;;7.45;2.10;;;10.70;99.90;;;;;;5092504;28;20072;-61
2022/11/06 08:32:48;;;;;;;8.98;3.03;;;10.70;99.90;;;;;;5090120;28;20096;-61
2022/11/06 08:35:14;;;;;;;11.25;2.40;;;10.90;99.90;;;;;;5090972;28;20397;-58
2022/11/06 08:37:40;;;;;;;6.40;2.28;;;10.80;99.90;;;;;;5085919;28;20040;-61
2022/11/06 08:40:06;;;;;;;6.57;2.10;;;11.00;99.90;;;;;;5084633;28;20052;-61
2022/11/06 08:42:32;;;;;;;5.15;2.22;;;11.00;99.90;;;;;;5088346;28;20043;-61
2022/11/06 08:44:57;;;;;;;6.50;1.92;;;10.90;99.90;;;;;;5085073;28;20472;-60
2022/11/06 08:47:23;;;;;;;3.95;2.17;;;11.00;99.90;;;;;;5085704;28;20179;-60
2022/11/06 08:49:48;;;;;;;9.90;2.33;;;11.00;99.90;;;;;;5084571;28;20484;-60
2022/11/06 08:52:14;;;;;;;6.20;2.00;;;11.10;99.90;;;;;;5087996;28;20032;-61
2022/11/06 08:54:40;;;;;;;5.82;1.90;;;11.30;99.90;;;;;;5068377;28;20118;-60
2022/11/06 08:57:05;;;;;;;7.35;2.33;;;11.50;99.90;;;;;;5085738;28;20091;-61
2022/11/06 08:59:31;;;;;;;9.25;2.25;;;11.60;99.90;;;;;;5087264;28;20043;-59
2022/11/06 09:01:57;;;;;;;6.40;2.00;;;11.70;99.90;;;;;;5085582;28;20044;-61
2022/11/06 09:04:23;;;;;;;6.28;2.15;;;11.70;99.90;;;;;;5084720;28;20055;-59
2022/11/06 09:06:49;;;;;;;7.18;2.22;;;11.80;99.90;;;;;;5085768;28;20149;-62
2022/11/06 09:09:14;;;;;;;5.38;1.92;;;11.80;99.90;;;;;;5086539;28;20399;-62
2022/11/06 09:11:40;;;;;;;7.43;2.17;;;11.80;99.90;;;;;;5070044;28;20039;-61
2022/11/06 09:14:06;;;;;;;4.75;2.05;;;11.80;99.90;;;;;;5077839;28;20121;-60
2022/11/06 09:16:31;;;;;;;5.63;2.13;;;11.90;99.90;;;;;;5077306;28;20070;-61
2022/11/06 09:18:57;;;;;;;9.40;2.08;;;11.90;99.90;;;;;;5082603;28;20073;-61
2022/11/06 09:21:23;;;;;;;4.85;2.13;;;11.90;99.90;;;;;;5083069;28;20186;-61
2022/11/06 09:23:49;;;;;;;6.32;2.10;;;12.00;99.90;;;;;;5079482;28;20446;-61
2022/11/06 09:26:16;;;;;;;9.90;2.22;;;12.10;99.90;;;;;;5080509;28;20615;-61
2022/11/06 09:28:42;;;;;;;4.88;2.03;;;12.10;99.90;;;;;;5082238;28;20043;-61
2022/11/06 09:31:08;;;;;;;3.65;1.90;;;12.20;99.90;;;;;;5082296;28;20044;-61
2022/11/06 09:33:34;;;;;;;9.75;2.55;;;12.10;99.90;;;;;;5081184;28;20036;-61
2022/11/06 09:36:03;;;;;;;6.00;1.95;;;12.00;99.90;;;;;;5083856;28;20445;-61
2022/11/06 09:38:29;;;;;;;7.95;2.42;;;12.10;99.90;;;;;;5082776;28;20048;-61
2022/11/06 09:40:58;;;;;;;9.10;2.47;;;12.00;99.90;;;;;;5083639;28;20941;-62
2022/11/06 09:43:51;;;;;;;7.38;2.00;;;12.00;99.90;;;;;;5064006;28;20468;-60
2022/11/06 09:46:23;;;;;;;7.35;2.20;;;11.90;99.90;;;;;;5083997;28;20040;-60
2022/11/06 09:48:58;;;;;;;6.10;2.33;;;12.00;99.90;;;;;;5084125;28;20136;-61
2022/11/06 09:51:49;;;;;;;6.90;2.45;;;12.00;99.90;;;;;;5084545;28;20524;-62
2022/11/06 09:54:40;;;;;;;5.00;1.60;;;12.10;99.90;;;;;;5064101;28;20059;-61
2022/11/06 09:57:20;;;;;;;6.47;1.88;;;12.10;99.90;;;;;;5087021;28;20403;-61
2022/11/06 09:59:47;;;;;;;6.38;1.85;;;12.30;99.90;;;;;;5083033;28;20700;-61
2022/11/06 10:02:31;;;;;;;7.32;2.10;;;12.40;99.90;;;;;;5080477;28;20056;-61
2022/11/06 10:05:10;;;;;;;7.13;1.70;;;12.60;99.90;;;;;;5080584;28;20131;-60
2022/11/06 10:07:39;;;;;;;5.00;1.88;;;12.50;99.90;;;;;;5082321;28;20405;-60
2022/11/06 10:10:11;;;;;;;6.85;1.95;;;12.50;99.90;;;;;;5060889;28;20051;-62
2022/11/06 10:13:19;;;;;;;5.93;1.63;;;12.40;99.90;;;;;;5080501;28;20127;-61
2022/11/06 10:15:53;;;;;;;6.03;1.67;;;12.40;99.90;;;;;;5078621;28;20109;-62
2022/11/06 10:18:54;;;;;;;7.55;1.65;;;12.40;99.90;;;;;;5078503;28;20047;-61
2022/11/06 10:21:31;;;;;;;4.72;1.80;;;12.60;99.90;;;;;;4975441;28;20050;-61
2022/11/06 10:23:58;;;;;;;10.27;1.95;;;12.60;99.90;;;;;;4979997;28;20034;-61
2022/11/06 10:26:47;;;;;;;5.38;1.83;;;12.70;99.90;;;;;;4977244;28;20559;-61
2022/11/06 10:29:22;;;;;;;5.30;1.83;;;12.70;99.90;;;;;;4979390;28;20112;-62
2022/11/06 10:31:56;;;;;;;7.38;2.42;;;12.70;99.90;;;;;;4978284;28;20416;-61
2022/11/06 10:34:29;;;;;;;4.75;1.60;;;12.70;99.90;;;;;;4959236;28;20053;-61
2022/11/06 10:37:25;;;;;;;4.35;1.70;;;12.80;99.90;;;;;;4979116;28;20109;-61
2022/11/06 10:39:53;;;;;;;3.40;1.50;;;12.80;99.90;;;;;;4966043;28;20058;-61
2022/11/06 10:42:22;;;;;;;3.17;1.75;;;12.90;99.90;;;;;;4981464;28;20050;-61
2022/11/06 10:44:56;;;;;;;7.40;1.95;;;13.00;99.90;;;;;;4984654;28;20058;-61
2022/11/06 10:47:28;;;;;;;7.20;1.60;;;13.00;99.90;;;;;;4980714;28;20419;-60
2022/11/06 10:49:57;;;;;;;6.95;2.13;;;13.00;99.90;;;;;;4976604;28;20463;-62
2022/11/06 10:52:49;;;;;;;4.72;1.75;;;13.10;99.90;;;;;;4964840;28;20451;-59
2022/11/06 10:55:33;;;;;;;3.05;1.52;;;13.20;99.90;;;;;;4960515;28;20058;-59
2022/11/06 10:58:18;;;;;;;4.70;1.35;;;13.20;99.90;;;;;;5043795;28;20060;-58
2022/11/06 11:00:44;;;;;;;5.88;1.42;;;13.40;99.90;;;;;;5083464;28;20067;-59
2022/11/06 11:03:25;;;;;;;6.85;1.85;;;13.60;99.90;;;;;;5083382;28;20094;-60
2022/11/06 11:05:51;;;;;;;4.03;1.30;;;13.80;99.90;;;;;;5062601;28;20232;-58
2022/11/06 11:08:34;;;;;;;3.67;1.42;;;14.00;99.90;;;;;;5081594;28;20087;-61
2022/11/06 11:11:16;;;;;;;5.57;1.40;;;14.00;99.90;;;;;;5064378;28;20396;-62
2022/11/06 11:14:03;;;;;;;6.63;1.75;;;14.00;99.90;;;;;;5082241;28;20453;-60
2022/11/06 11:16:33;;;;;;;4.18;1.80;;;13.90;99.90;;;;;;5075247;28;20052;-62
2022/11/06 11:19:33;;;;;;;6.40;1.88;;;13.90;99.90;;;;;;5087904;28;20039;-61
2022/11/06 11:22:01;;;;;;;6.28;1.45;;;13.90;99.90;;;;;;5087011;28;20202;-59
2022/11/06 11:24:28;;;;;;;5.70;1.45;;;14.00;99.90;;;;;;5082643;28;20504;-60
2022/11/06 11:27:00;;;;;;;5.95;1.50;;;14.10;99.90;;;;;;5082488;28;20040;-60
2022/11/06 11:29:33;;;;;;;4.75;1.58;;;14.00;99.90;;;;;;5091007;28;20071;-60
2022/11/06 11:32:05;;;;;;;6.00;1.70;;;13.80;99.90;;;;;;5091508;28;20036;-61
2022/11/06 11:34:36;;;;;;;5.82;1.60;;;13.60;99.90;;;;;;5086981;28;20081;-59
2022/11/06 11:37:06;;;;;;;4.65;1.58;;;13.60;99.90;;;;;;5071537;28;20039;-60
2022/11/06 11:39:38;;;;;;;6.57;1.80;;;13.50;99.90;;;;;;5073795;28;20048;-60
2022/11/06 11:42:22;;;;;;;4.57;1.67;;;13.50;99.90;;;;;;5078395;28;20044;-60
2022/11/06 11:45:10;;;;;;;6.10;1.60;;;13.50;99.90;;;;;;5089139;28;20075;-60
2022/11/06 11:47:41;;;;;;;9.52;1.98;;;13.40;99.90;;;;;;5078223;28;20131;-60
2022/11/06 11:50:16;;;;;;;8.30;1.80;;;13.30;99.90;;;;;;5096598;28;20043;-59
2022/11/06 11:52:44;;;;;;;5.60;1.30;;;13.30;99.90;;;;;;5096279;28;20404;-59
2022/11/06 11:55:17;;;;;;;6.75;1.98;;;13.30;99.90;;;;;;5091332;28;20032;-59
2022/11/06 11:57:45;;;;;;;5.95;1.70;;;13.30;99.90;;;;;;5094716;28;20054;-58
2022/11/06 12:00:17;;;;;;;6.18;1.85;;;13.30;99.90;;;;;;5077577;28;20127;-59
2022/11/06 12:02:47;;;;;;;5.82;1.70;;;13.40;99.90;;;;;;5078177;28;20048;-59
2022/11/06 12:05:26;;;;;;;5.50;1.58;;;13.30;99.90;;;;;;5094698;28;20044;-59
2022/11/06 12:07:57;;;;;;;3.97;1.88;;;13.40;99.90;;;;;;5096054;28;20036;-59
2022/11/06 12:10:25;;;;;;;8.00;1.80;;;13.40;99.90;;;;;;5093696;28;20090;-59
2022/11/06 12:12:56;;;;;;;5.43;1.73;;;13.40;99.90;;;;;;5096198;28;20127;-58
2022/11/06 12:15:27;;;;;;;3.80;1.38;;;13.40;99.90;;;;;;5095152;28;20044;-60
2022/11/06 12:17:58;;;;;;;4.82;1.80;;;13.40;99.90;;;;;;5096251;28;20066;-59
2022/11/06 12:20:46;;;;;;;10.63;1.73;;;13.40;99.90;;;;;;5088703;28;20044;-59
2022/11/06 12:23:23;;;;;;;3.42;1.85;;;13.40;99.90;;;;;;5094787;28;20434;-60
2022/11/06 12:26:02;;;;;;;6.57;1.80;;;13.50;99.90;;;;;;5094139;28;20086;-56
2022/11/06 12:28:31;;;;;;;4.95;1.65;;;13.50;99.90;;;;;;5088828;28;20123;-59
2022/11/06 12:31:15;;;;;;;6.10;1.77;;;13.60;99.90;;;;;;5094792;28;20038;-59
2022/11/06 12:33:45;;;;;;;4.07;1.40;;;13.50;99.90;;;;;;5077654;28;20408;-59
2022/11/06 12:36:16;;;;;;;5.85;1.88;;;13.50;99.90;;;;;;5095218;28;20075;-59
2022/11/06 12:38:54;;;;;;;4.15;1.40;;;13.40;99.90;;;;;;5077311;28;20056;-58
2022/11/06 12:41:28;;;;;;;7.10;1.90;;;13.30;99.90;;;;;;5091579;28;20050;-59
2022/11/06 12:43:55;;;;;;;7.88;1.75;;;13.30;99.90;;;;;;5094838;28;20044;-59
2022/11/06 12:46:24;;;;;;;6.90;2.30;;;13.30;99.90;;;;;;5095414;28;20055;-58
2022/11/06 12:49:20;;;;;;;4.15;1.52;;;13.30;99.90;;;;;;5095296;28;20463;-59
2022/11/06 12:52:10;;;;;;;6.03;2.30;;;13.20;99.90;;;;;;5073318;28;20059;-59
2022/11/06 12:54:48;;;;;;;5.00;1.80;;;13.20;99.90;;;;;;5091129;28;20405;-59
2022/11/06 12:57:43;;;;;;;7.53;1.83;;;13.20;99.90;;;;;;5077193;28;20174;-59
2022/11/06 13:00:20;;;;;;;6.43;1.48;;;13.20;99.90;;;;;;5080827;28;20528;-59
2022/11/06 13:03:34;;;;;;;5.63;1.90;;;13.20;99.90;;;;;;5095233;28;20093;-59
2022/11/06 13:06:08;;;;;;;8.57;2.35;;;13.10;99.90;;;;;;5061151;28;20105;-59
2022/11/06 13:08:39;;;;;;;5.03;1.92;;;13.10;99.90;;;;;;5081241;28;20048;-59
2022/11/06 13:11:31;;;;;;;6.38;1.60;;;13.10;99.90;;;;;;5093882;28;20040;-59
2022/11/06 13:14:18;;;;;;;4.80;1.58;;;13.10;99.90;;;;;;5066715;28;20114;-59
2022/11/06 13:16:49;;;;;;;6.93;1.70;;;13.10;99.90;;;;;;5094700;28;20408;-59
2022/11/06 13:19:40;;;;;;;6.35;1.88;;;13.20;99.90;;;;;;5081463;28;20392;-58
2022/11/06 13:22:47;;;;;;;8.32;2.28;;;13.20;99.90;;;;;;5093187;28;20127;-59
2022/11/06 13:25:21;;;;;;;3.67;1.42;;;13.20;99.90;;;;;;5031508;28;20053;-59
2022/11/06 13:27:55;;;;;;;3.45;1.38;;;13.30;99.90;;;;;;5024775;28;20104;-59